sensor_id;sensor_type;location;lat;lon;timestamp;pressure;altitude;pressure_sealevel;temperature;humidity
54872;BME280;43914;57.680;11.982;2023-05-09T00:00:00;101544.83;;;8.64;59.51
54872;BME280;43914;57.680;11.982;2023-05-09T00:02:25;101539.29;;;8.63;59.71
54872;BME280;43914;57.680;11.982;2023-05-09T00:04:52;101535.74;;;8.61;59.80
54872;BME280;43914;57.680;11.982;2023-05-09T00:07:18;101538.59;;;8.59;59.76
54872;BME280;43914;57.680;11.982;2023-05-09T00:09:43;101538.14;;;8.58;59.85
54872;BME280;43914;57.680;11.982;2023-05-09T00:12:09;101532.94;;;8.56;59.73
54872;BME280;43914;57.680;11.982;2023-05-09T00:14:36;101529.50;;;8.53;59.74
54872;BME280;43914;57.680;11.982;2023-05-09T00:17:03;101529.55;;;8.51;59.71
54872;BME280;43914;57.680;11.982;2023-05-09T00:19:28;101530.93;;;8.49;59.76
54872;BME280;43914;57.680;11.982;2023-05-09T00:21:54;101526.26;;;8.48;59.79
54872;BME280;43914;57.680;11.982;2023-05-09T00:24:22;101524.77;;;8.47;59.95
54872;BME280;43914;57.680;11.982;2023-05-09T00:26:48;101527.18;;;8.46;59.71
54872;BME280;43914;57.680;11.982;2023-05-09T00:29:13;101513.15;;;8.36;59.66
54872;BME280;43914;57.680;11.982;2023-05-09T00:31:38;101517.46;;;8.43;59.76
54872;BME280;43914;57.680;11.982;2023-05-09T00:34:04;101518.84;;;8.42;59.83
54872;BME280;43914;57.680;11.982;2023-05-09T00:36:29;101516.84;;;8.40;59.77
54872;BME280;43914;57.680;11.982;2023-05-09T00:38:56;101516.01;;;8.37;59.53
54872;BME280;43914;57.680;11.982;2023-05-09T00:41:21;101508.83;;;8.36;59.59
54872;BME280;43914;57.680;11.982;2023-05-09T00:43:47;101512.80;;;8.35;59.60
54872;BME280;43914;57.680;11.982;2023-05-09T00:46:12;101509.51;;;8.33;59.59
54872;BME280;43914;57.680;11.982;2023-05-09T00:48:38;101508.70;;;8.33;59.73
54872;BME280;43914;57.680;11.982;2023-05-09T00:51:04;101505.35;;;8.33;59.61
54872;BME280;43914;57.680;11.982;2023-05-09T00:53:29;101505.05;;;8.32;59.46
54872;BME280;43914;57.680;11.982;2023-05-09T00:55:58;101505.31;;;8.32;59.46
54872;BME280;43914;57.680;11.982;2023-05-09T00:58:24;101501.63;;;8.31;59.28
54872;BME280;43914;57.680;11.982;2023-05-09T01:00:50;101502.15;;;8.31;59.17
54872;BME280;43914;57.680;11.982;2023-05-09T01:03:15;101497.02;;;8.29;59.17
54872;BME280;43914;57.680;11.982;2023-05-09T01:06:02;101496.19;;;8.30;58.88
54872;BME280;43914;57.680;11.982;2023-05-09T01:13:48;101493.10;;;8.27;58.57
54872;BME280;43914;57.680;11.982;2023-05-09T01:16:25;101488.25;;;8.27;58.48
54872;BME280;43914;57.680;11.982;2023-05-09T01:19:03;101489.71;;;8.25;58.41
54872;BME280;43914;57.680;11.982;2023-05-09T01:21:39;101488.15;;;8.23;58.19
54872;BME280;43914;57.680;11.982;2023-05-09T01:29:46;101484.44;;;8.17;58.01
54872;BME280;43914;57.680;11.982;2023-05-09T01:32:20;101483.73;;;8.15;58.16
54872;BME280;43914;57.680;11.982;2023-05-09T01:34:48;101479.37;;;8.12;58.05
54872;BME280;43914;57.680;11.982;2023-05-09T01:37:17;101472.59;;;8.10;57.95
54872;BME280;43914;57.680;11.982;2023-05-09T01:39:47;101471.52;;;8.08;57.79
54872;BME280;43914;57.680;11.982;2023-05-09T01:42:18;101470.91;;;8.07;57.64
54872;BME280;43914;57.680;11.982;2023-05-09T01:44:45;101467.35;;;8.05;57.70
54872;BME280;43914;57.680;11.982;2023-05-09T01:47:12;101466.42;;;8.04;57.45
54872;BME280;43914;57.680;11.982;2023-05-09T01:49:41;101465.23;;;8.03;57.38
54872;BME280;43914;57.680;11.982;2023-05-09T01:52:10;101461.40;;;8.02;57.32
54872;BME280;43914;57.680;11.982;2023-05-09T01:54:37;101459.11;;;8.02;57.29
54872;BME280;43914;57.680;11.982;2023-05-09T01:57:05;101455.63;;;8.01;57.22
54872;BME280;43914;57.680;11.982;2023-05-09T01:59:32;101452.55;;;8.01;57.00
54872;BME280;43914;57.680;11.982;2023-05-09T02:01:59;101449.04;;;8.01;56.96
54872;BME280;43914;57.680;11.982;2023-05-09T02:04:27;101441.43;;;8.00;56.94
54872;BME280;43914;57.680;11.982;2023-05-09T02:06:54;101445.08;;;7.99;56.93
54872;BME280;43914;57.680;11.982;2023-05-09T02:09:21;101444.02;;;7.98;56.94
54872;BME280;43914;57.680;11.982;2023-05-09T02:11:47;101442.76;;;7.96;56.90
54872;BME280;43914;57.680;11.982;2023-05-09T02:14:13;101439.37;;;7.94;56.86
54872;BME280;43914;57.680;11.982;2023-05-09T02:16:38;101441.64;;;7.94;56.99
54872;BME280;43914;57.680;11.982;2023-05-09T02:19:05;101440.95;;;7.94;57.01
54872;BME280;43914;57.680;11.982;2023-05-09T02:21:30;101436.84;;;7.92;56.90
54872;BME280;43914;57.680;11.982;2023-05-09T02:23:56;101433.77;;;7.89;56.82
54872;BME280;43914;57.680;11.982;2023-05-09T02:26:23;101433.92;;;7.87;56.78
54872;BME280;43914;57.680;11.982;2023-05-09T02:28:50;101430.33;;;7.86;56.92
54872;BME280;43914;57.680;11.982;2023-05-09T02:31:18;101426.95;;;7.84;57.02
54872;BME280;43914;57.680;11.982;2023-05-09T02:33:45;101423.73;;;7.84;56.93
54872;BME280;43914;57.680;11.982;2023-05-09T02:36:13;101420.58;;;7.82;56.90
54872;BME280;43914;57.680;11.982;2023-05-09T02:38:42;101421.34;;;7.81;56.98
54872;BME280;43914;57.680;11.982;2023-05-09T02:41:15;101420.60;;;7.81;56.82
54872;BME280;43914;57.680;11.982;2023-05-09T02:43:41;101418.39;;;7.78;56.95
54872;BME280;43914;57.680;11.982;2023-05-09T02:46:08;101416.53;;;7.77;57.05
54872;BME280;43914;57.680;11.982;2023-05-09T02:48:34;101412.45;;;7.77;56.91
54872;BME280;43914;57.680;11.982;2023-05-09T02:51:00;101410.32;;;7.76;56.96
54872;BME280;43914;57.680;11.982;2023-05-09T02:53:26;101408.58;;;7.74;56.91
54872;BME280;43914;57.680;11.982;2023-05-09T02:55:52;101409.99;;;7.73;57.05
54872;BME280;43914;57.680;11.982;2023-05-09T02:58:19;101408.47;;;7.70;56.95
54872;BME280;43914;57.680;11.982;2023-05-09T03:00:44;101405.99;;;7.70;57.02
54872;BME280;43914;57.680;11.982;2023-05-09T03:03:10;101404.55;;;7.68;57.11
54872;BME280;43914;57.680;11.982;2023-05-09T03:05:35;101402.53;;;7.67;57.09
54872;BME280;43914;57.680;11.982;2023-05-09T03:08:01;101403.08;;;7.65;57.28
54872;BME280;43914;57.680;11.982;2023-05-09T03:10:26;101399.39;;;7.62;57.22
54872;BME280;43914;57.680;11.982;2023-05-09T03:12:52;101394.37;;;7.61;57.29
54872;BME280;43914;57.680;11.982;2023-05-09T03:15:17;101389.95;;;7.58;57.38
54872;BME280;43914;57.680;11.982;2023-05-09T03:17:43;101383.86;;;7.57;57.62
54872;BME280;43914;57.680;11.982;2023-05-09T03:20:08;101380.20;;;7.56;57.56
54872;BME280;43914;57.680;11.982;2023-05-09T03:22:35;101380.40;;;7.56;57.64
54872;BME280;43914;57.680;11.982;2023-05-09T03:25:01;101378.30;;;7.57;57.64
54872;BME280;43914;57.680;11.982;2023-05-09T03:27:27;101375.17;;;7.58;57.49
54872;BME280;43914;57.680;11.982;2023-05-09T03:29:52;101375.27;;;7.59;57.46
54872;BME280;43914;57.680;11.982;2023-05-09T03:32:18;101376.75;;;7.62;57.62
54872;BME280;43914;57.680;11.982;2023-05-09T03:34:43;101378.66;;;7.67;57.52
54872;BME280;43914;57.680;11.982;2023-05-09T03:37:09;101371.09;;;7.67;57.48
54872;BME280;43914;57.680;11.982;2023-05-09T03:39:35;101373.20;;;7.73;57.33
54872;BME280;43914;57.680;11.982;2023-05-09T03:42:00;101368.71;;;7.75;57.37
54872;BME280;43914;57.680;11.982;2023-05-09T03:44:26;101361.43;;;7.78;57.22
54872;BME280;43914;57.680;11.982;2023-05-09T03:46:51;101363.30;;;7.82;57.17
54872;BME280;43914;57.680;11.982;2023-05-09T03:49:17;101357.14;;;7.84;57.17
54872;BME280;43914;57.680;11.982;2023-05-09T03:51:42;101357.48;;;7.88;57.10
54872;BME280;43914;57.680;11.982;2023-05-09T03:54:08;101359.53;;;7.92;56.87
54872;BME280;43914;57.680;11.982;2023-05-09T03:56:33;101354.70;;;7.97;56.93
54872;BME280;43914;57.680;11.982;2023-05-09T03:58:59;101349.44;;;7.99;56.95
54872;BME280;43914;57.680;11.982;2023-05-09T04:01:25;101352.75;;;8.04;56.88
54872;BME280;43914;57.680;11.982;2023-05-09T04:03:50;101351.21;;;8.08;56.71
54872;BME280;43914;57.680;11.982;2023-05-09T04:06:17;101351.20;;;8.14;56.60
54872;BME280;43914;57.680;11.982;2023-05-09T04:08:43;101350.21;;;8.17;56.59
54872;BME280;43914;57.680;11.982;2023-05-09T04:11:09;101346.05;;;8.22;56.44
54872;BME280;43914;57.680;11.982;2023-05-09T04:13:34;101341.59;;;8.28;56.44
54872;BME280;43914;57.680;11.982;2023-05-09T04:16:00;101344.09;;;8.33;56.29
54872;BME280;43914;57.680;11.982;2023-05-09T04:18:26;101335.77;;;8.36;56.26
54872;BME280;43914;57.680;11.982;2023-05-09T04:20:51;101341.05;;;8.41;56.10
54872;BME280;43914;57.680;11.982;2023-05-09T04:23:17;101342.36;;;8.44;56.14
54872;BME280;43914;57.680;11.982;2023-05-09T04:25:43;101337.70;;;8.44;55.97
54872;BME280;43914;57.680;11.982;2023-05-09T04:28:08;101343.89;;;8.48;55.95
54872;BME280;43914;57.680;11.982;2023-05-09T04:30:34;101342.20;;;8.51;55.99
54872;BME280;43914;57.680;11.982;2023-05-09T04:32:59;101343.19;;;8.54;55.98
54872;BME280;43914;57.680;11.982;2023-05-09T04:35:25;101345.96;;;8.56;56.02
54872;BME280;43914;57.680;11.982;2023-05-09T04:37:51;101341.27;;;8.59;56.02
54872;BME280;43914;57.680;11.982;2023-05-09T04:40:16;101338.32;;;8.63;56.01
54872;BME280;43914;57.680;11.982;2023-05-09T04:42:42;101341.08;;;8.65;55.97
54872;BME280;43914;57.680;11.982;2023-05-09T04:45:08;101338.21;;;8.69;55.87
54872;BME280;43914;57.680;11.982;2023-05-09T04:47:36;101337.64;;;8.73;56.02
54872;BME280;43914;57.680;11.982;2023-05-09T04:50:02;101340.24;;;8.77;56.13
54872;BME280;43914;57.680;11.982;2023-05-09T04:52:27;101337.83;;;8.82;56.01
54872;BME280;43914;57.680;11.982;2023-05-09T04:54:53;101333.03;;;8.87;55.99
54872;BME280;43914;57.680;11.982;2023-05-09T04:57:19;101336.76;;;8.91;55.94
54872;BME280;43914;57.680;11.982;2023-05-09T04:59:45;101337.95;;;8.95;56.00
54872;BME280;43914;57.680;11.982;2023-05-09T05:02:10;101333.20;;;8.99;56.03
54872;BME280;43914;57.680;11.982;2023-05-09T05:04:37;101329.58;;;9.03;55.98
54872;BME280;43914;57.680;11.982;2023-05-09T05:07:02;101327.23;;;9.07;56.03
54872;BME280;43914;57.680;11.982;2023-05-09T05:09:29;101324.79;;;9.12;56.03
54872;BME280;43914;57.680;11.982;2023-05-09T05:11:54;101323.91;;;9.17;56.08
54872;BME280;43914;57.680;11.982;2023-05-09T05:14:20;101321.80;;;9.21;55.96
54872;BME280;43914;57.680;11.982;2023-05-09T05:16:45;101314.98;;;9.29;55.92
54872;BME280;43914;57.680;11.982;2023-05-09T05:19:11;101316.95;;;9.35;55.93
54872;BME280;43914;57.680;11.982;2023-05-09T05:21:36;101312.00;;;9.42;55.75
54872;BME280;43914;57.680;11.982;2023-05-09T05:24:02;101308.23;;;9.48;55.80
54872;BME280;43914;57.680;11.982;2023-05-09T05:26:27;101306.59;;;9.57;55.52
54872;BME280;43914;57.680;11.982;2023-05-09T05:28:53;101304.60;;;9.66;55.24
54872;BME280;43914;57.680;11.982;2023-05-09T05:31:20;101303.88;;;9.75;55.36
54872;BME280;43914;57.680;11.982;2023-05-09T05:33:46;101300.14;;;9.81;55.35
54872;BME280;43914;57.680;11.982;2023-05-09T05:36:11;101298.50;;;9.88;55.13
54872;BME280;43914;57.680;11.982;2023-05-09T05:38:37;101298.30;;;9.97;55.01
54872;BME280;43914;57.680;11.982;2023-05-09T05:41:02;101296.73;;;10.03;54.90
54872;BME280;43914;57.680;11.982;2023-05-09T05:43:28;101291.79;;;10.10;54.70
54872;BME280;43914;57.680;11.982;2023-05-09T05:45:53;101290.27;;;10.18;54.65
54872;BME280;43914;57.680;11.982;2023-05-09T05:48:20;101289.60;;;10.24;54.62
54872;BME280;43914;57.680;11.982;2023-05-09T05:50:45;101289.45;;;10.29;54.54
54872;BME280;43914;57.680;11.982;2023-05-09T05:53:11;101284.46;;;10.33;54.50
54872;BME280;43914;57.680;11.982;2023-05-09T05:55:36;101280.54;;;10.38;54.47
54872;BME280;43914;57.680;11.982;2023-05-09T05:58:01;101279.61;;;10.44;54.47
54872;BME280;43914;57.680;11.982;2023-05-09T06:00:27;101282.05;;;10.49;54.39
54872;BME280;43914;57.680;11.982;2023-05-09T06:02:52;101279.40;;;10.54;54.35
54872;BME280;43914;57.680;11.982;2023-05-09T06:05:18;101274.45;;;10.58;54.34
54872;BME280;43914;57.680;11.982;2023-05-09T06:07:43;101272.10;;;10.62;54.36
54872;BME280;43914;57.680;11.982;2023-05-09T06:10:09;101268.83;;;10.67;54.34
54872;BME280;43914;57.680;11.982;2023-05-09T06:12:35;101267.79;;;10.73;54.36
54872;BME280;43914;57.680;11.982;2023-05-09T06:15:01;101265.46;;;10.80;54.57
54872;BME280;43914;57.680;11.982;2023-05-09T06:17:29;101261.80;;;10.87;54.25
54872;BME280;43914;57.680;11.982;2023-05-09T06:19:54;101264.40;;;10.91;54.05
54872;BME280;43914;57.680;11.982;2023-05-09T06:22:20;101264.89;;;10.96;54.14
54872;BME280;43914;57.680;11.982;2023-05-09T06:24:45;101255.25;;;11.02;54.16
54872;BME280;43914;57.680;11.982;2023-05-09T06:27:11;101250.52;;;11.09;53.89
54872;BME280;43914;57.680;11.982;2023-05-09T06:29:36;101250.48;;;11.16;53.71
54872;BME280;43914;57.680;11.982;2023-05-09T06:32:02;101243.08;;;11.19;53.63
54872;BME280;43914;57.680;11.982;2023-05-09T06:34:27;101245.34;;;11.29;53.78
54872;BME280;43914;57.680;11.982;2023-05-09T06:36:53;101251.12;;;11.43;53.72
54872;BME280;43914;57.680;11.982;2023-05-09T06:39:18;101245.70;;;11.50;52.98
54872;BME280;43914;57.680;11.982;2023-05-09T06:41:43;101245.38;;;11.56;52.89
54872;BME280;43914;57.680;11.982;2023-05-09T06:44:09;101240.68;;;11.59;52.43
54872;BME280;43914;57.680;11.982;2023-05-09T06:46:34;101241.88;;;11.64;52.30
54872;BME280;43914;57.680;11.982;2023-05-09T06:49:00;101244.98;;;11.68;52.18
54872;BME280;43914;57.680;11.982;2023-05-09T06:51:26;101236.59;;;11.73;52.01
54872;BME280;43914;57.680;11.982;2023-05-09T06:53:52;101237.80;;;11.76;51.43
54872;BME280;43914;57.680;11.982;2023-05-09T06:56:17;101235.13;;;11.82;51.52
54872;BME280;43914;57.680;11.982;2023-05-09T06:58:45;101234.34;;;11.88;51.49
54872;BME280;43914;57.680;11.982;2023-05-09T07:01:11;101221.57;;;11.92;51.22
54872;BME280;43914;57.680;11.982;2023-05-09T07:03:36;101226.33;;;12.02;50.26
54872;BME280;43914;57.680;11.982;2023-05-09T07:06:02;101221.55;;;12.05;50.05
54872;BME280;43914;57.680;11.982;2023-05-09T07:08:27;101215.63;;;12.06;50.31
54872;BME280;43914;57.680;11.982;2023-05-09T07:10:53;101215.13;;;12.17;50.16
54872;BME280;43914;57.680;11.982;2023-05-09T07:13:18;101211.20;;;12.26;49.48
54872;BME280;43914;57.680;11.982;2023-05-09T07:15:43;101211.95;;;12.32;48.91
54872;BME280;43914;57.680;11.982;2023-05-09T07:18:09;101200.12;;;12.36;48.31
54872;BME280;43914;57.680;11.982;2023-05-09T07:20:35;101205.66;;;12.41;47.91
54872;BME280;43914;57.680;11.982;2023-05-09T07:23:04;101203.36;;;12.48;48.04
54872;BME280;43914;57.680;11.982;2023-05-09T07:25:30;101197.02;;;12.54;47.45
54872;BME280;43914;57.680;11.982;2023-05-09T07:27:56;101193.98;;;12.60;47.38
54872;BME280;43914;57.680;11.982;2023-05-09T07:30:21;101193.66;;;12.64;47.08
54872;BME280;43914;57.680;11.982;2023-05-09T07:32:47;101197.58;;;12.68;47.15
54872;BME280;43914;57.680;11.982;2023-05-09T07:35:12;101190.64;;;12.70;47.28
54872;BME280;43914;57.680;11.982;2023-05-09T07:37:38;101189.58;;;12.76;47.18
54872;BME280;43914;57.680;11.982;2023-05-09T07:40:04;101181.34;;;12.80;46.67
54872;BME280;43914;57.680;11.982;2023-05-09T07:42:30;101173.52;;;12.84;46.32
54872;BME280;43914;57.680;11.982;2023-05-09T07:44:57;101167.89;;;12.84;46.24
54872;BME280;43914;57.680;11.982;2023-05-09T07:47:23;101170.73;;;12.86;46.16
54872;BME280;43914;57.680;11.982;2023-05-09T07:49:50;101175.23;;;12.87;46.12
54872;BME280;43914;57.680;11.982;2023-05-09T07:52:16;101162.04;;;12.91;46.05
54872;BME280;43914;57.680;11.982;2023-05-09T07:54:42;101158.09;;;12.94;45.60
54872;BME280;43914;57.680;11.982;2023-05-09T07:57:08;101145.36;;;12.95;45.21
54872;BME280;43914;57.680;11.982;2023-05-09T07:59:34;101149.38;;;12.97;45.23
54872;BME280;43914;57.680;11.982;2023-05-09T08:01:59;101143.10;;;13.00;45.17
54872;BME280;43914;57.680;11.982;2023-05-09T08:04:25;101144.81;;;13.05;44.84
54872;BME280;43914;57.680;11.982;2023-05-09T08:06:51;101137.95;;;13.08;43.89
54872;BME280;43914;57.680;11.982;2023-05-09T08:09:16;101139.71;;;13.10;43.24
54872;BME280;43914;57.680;11.982;2023-05-09T08:11:43;101144.77;;;13.13;43.17
54872;BME280;43914;57.680;11.982;2023-05-09T08:14:09;101139.20;;;13.16;43.26
54872;BME280;43914;57.680;11.982;2023-05-09T08:16:35;101133.52;;;13.17;43.06
54872;BME280;43914;57.680;11.982;2023-05-09T08:19:00;101135.66;;;13.21;43.21
54872;BME280;43914;57.680;11.982;2023-05-09T08:21:26;101128.41;;;13.23;43.05
54872;BME280;43914;57.680;11.982;2023-05-09T08:23:51;101127.48;;;13.24;43.29
54872;BME280;43914;57.680;11.982;2023-05-09T08:26:17;101130.10;;;13.28;42.73
54872;BME280;43914;57.680;11.982;2023-05-09T08:28:43;101122.99;;;13.32;42.50
54872;BME280;43914;57.680;11.982;2023-05-09T08:31:08;101124.11;;;13.36;42.14
54872;BME280;43914;57.680;11.982;2023-05-09T08:33:34;101122.38;;;13.41;41.86
54872;BME280;43914;57.680;11.982;2023-05-09T08:35:59;101120.26;;;13.48;41.62
54872;BME280;43914;57.680;11.982;2023-05-09T08:38:25;101120.92;;;13.53;41.80
54872;BME280;43914;57.680;11.982;2023-05-09T08:40:50;101122.07;;;13.57;42.18
54872;BME280;43914;57.680;11.982;2023-05-09T08:43:16;101120.05;;;13.63;42.27
54872;BME280;43914;57.680;11.982;2023-05-09T08:46:13;101119.66;;;13.72;41.66
54872;BME280;43914;57.680;11.982;2023-05-09T08:48:38;101115.08;;;13.81;41.25
54872;BME280;43914;57.680;11.982;2023-05-09T08:51:05;101118.70;;;13.89;41.54
54872;BME280;43914;57.680;11.982;2023-05-09T08:53:31;101118.13;;;13.95;41.29
54872;BME280;43914;57.680;11.982;2023-05-09T08:55:58;101121.59;;;13.96;40.71
54872;BME280;43914;57.680;11.982;2023-05-09T08:58:25;101110.85;;;14.00;41.00
54872;BME280;43914;57.680;11.982;2023-05-09T09:00:52;101113.79;;;14.05;41.13
54872;BME280;43914;57.680;11.982;2023-05-09T09:03:20;101119.57;;;14.13;41.14
54872;BME280;43914;57.680;11.982;2023-05-09T09:05:46;101121.86;;;14.17;41.00
54872;BME280;43914;57.680;11.982;2023-05-09T09:08:13;101112.49;;;14.20;40.85
54872;BME280;43914;57.680;11.982;2023-05-09T09:10:40;101113.05;;;14.22;40.04
54872;BME280;43914;57.680;11.982;2023-05-09T09:13:12;101106.89;;;14.21;39.22
54872;BME280;43914;57.680;11.982;2023-05-09T09:15:40;101108.09;;;14.20;39.11
54872;BME280;43914;57.680;11.982;2023-05-09T09:18:10;101110.13;;;14.25;39.33
54872;BME280;43914;57.680;11.982;2023-05-09T09:20:53;101114.50;;;14.29;38.99
54872;BME280;43914;57.680;11.982;2023-05-09T09:23:24;101105.42;;;14.36;38.13
54872;BME280;43914;57.680;11.982;2023-05-09T09:25:58;101100.91;;;14.41;36.80
54872;BME280;43914;57.680;11.982;2023-05-09T09:28:25;101101.00;;;14.42;37.36
54872;BME280;43914;57.680;11.982;2023-05-09T09:30:50;101099.73;;;14.46;36.93
54872;BME280;43914;57.680;11.982;2023-05-09T09:33:22;101096.73;;;14.50;37.24
54872;BME280;43914;57.680;11.982;2023-05-09T09:35:50;101092.20;;;14.55;37.83
54872;BME280;43914;57.680;11.982;2023-05-09T09:38:22;101087.36;;;14.66;37.70
54872;BME280;43914;57.680;11.982;2023-05-09T09:40:54;101088.30;;;14.80;37.59
54872;BME280;43914;57.680;11.982;2023-05-09T09:43:28;101080.33;;;14.87;36.85
54872;BME280;43914;57.680;11.982;2023-05-09T09:45:54;101084.69;;;14.97;36.51
54872;BME280;43914;57.680;11.982;2023-05-09T09:48:24;101084.73;;;15.07;36.61
54872;BME280;43914;57.680;11.982;2023-05-09T09:50:50;101076.68;;;15.19;36.11
54872;BME280;43914;57.680;11.982;2023-05-09T09:53:19;101078.73;;;15.27;35.40
54872;BME280;43914;57.680;11.982;2023-05-09T09:55:51;101063.11;;;15.31;34.70
54872;BME280;43914;57.680;11.982;2023-05-09T09:58:21;101064.02;;;15.44;34.17
54872;BME280;43914;57.680;11.982;2023-05-09T10:01:09;101061.70;;;15.48;33.79
54872;BME280;43914;57.680;11.982;2023-05-09T10:03:41;101055.27;;;15.54;33.08
54872;BME280;43914;57.680;11.982;2023-05-09T10:06:14;101053.80;;;15.61;33.68
54872;BME280;43914;57.680;11.982;2023-05-09T10:08:41;101052.10;;;15.72;33.80
54872;BME280;43914;57.680;11.982;2023-05-09T10:11:08;101048.15;;;15.80;34.32
54872;BME280;43914;57.680;11.982;2023-05-09T10:13:35;101036.00;;;15.87;34.02
54872;BME280;43914;57.680;11.982;2023-05-09T10:16:03;101039.44;;;15.92;34.16
54872;BME280;43914;57.680;11.982;2023-05-09T10:18:30;101041.25;;;15.98;34.00
54872;BME280;43914;57.680;11.982;2023-05-09T10:20:57;101042.19;;;16.04;33.80
54872;BME280;43914;57.680;11.982;2023-05-09T10:23:33;101041.95;;;16.12;33.85
54872;BME280;43914;57.680;11.982;2023-05-09T10:26:20;101045.17;;;16.21;33.64
54872;BME280;43914;57.680;11.982;2023-05-09T10:28:47;101039.87;;;16.33;33.33
54872;BME280;43914;57.680;11.982;2023-05-09T10:31:24;101028.95;;;16.42;32.31
54872;BME280;43914;57.680;11.982;2023-05-09T10:33:51;101024.16;;;16.52;31.99
54872;BME280;43914;57.680;11.982;2023-05-09T10:36:20;101026.16;;;16.61;32.14
54872;BME280;43914;57.680;11.982;2023-05-09T10:38:47;101016.30;;;16.68;31.37
54872;BME280;43914;57.680;11.982;2023-05-09T10:41:14;101013.92;;;16.80;31.87
54872;BME280;43914;57.680;11.982;2023-05-09T10:43:40;101009.31;;;16.89;30.76
54872;BME280;43914;57.680;11.982;2023-05-09T10:46:07;101002.46;;;16.96;30.45
54872;BME280;43914;57.680;11.982;2023-05-09T10:48:33;101004.00;;;17.07;30.61
54872;BME280;43914;57.680;11.982;2023-05-09T10:51:02;101004.65;;;17.19;30.75
54872;BME280;43914;57.680;11.982;2023-05-09T10:53:41;100996.10;;;17.29;31.35
54872;BME280;43914;57.680;11.982;2023-05-09T10:56:08;100995.91;;;17.34;30.98
54872;BME280;43914;57.680;11.982;2023-05-09T10:58:33;100991.17;;;17.39;31.14
54872;BME280;43914;57.680;11.982;2023-05-09T11:01:05;100988.47;;;17.50;31.72
54872;BME280;43914;57.680;11.982;2023-05-09T11:09:26;100987.49;;;17.69;30.29
54872;BME280;43914;57.680;11.982;2023-05-09T11:12:18;100988.05;;;17.67;30.89
54872;BME280;43914;57.680;11.982;2023-05-09T11:14:43;100988.48;;;17.69;31.17
54872;BME280;43914;57.680;11.982;2023-05-09T11:17:36;100985.35;;;17.77;31.21
54872;BME280;43914;57.680;11.982;2023-05-09T11:20:03;100984.34;;;17.89;30.77
54872;BME280;43914;57.680;11.982;2023-05-09T11:22:43;100984.25;;;17.96;31.01
54872;BME280;43914;57.680;11.982;2023-05-09T11:25:10;100984.25;;;17.99;30.87
54872;BME280;43914;57.680;11.982;2023-05-09T11:27:48;100983.09;;;18.01;30.90
54872;BME280;43914;57.680;11.982;2023-05-09T11:30:18;100981.87;;;18.05;30.82
54872;BME280;43914;57.680;11.982;2023-05-09T11:32:49;100976.41;;;18.13;30.66
54872;BME280;43914;57.680;11.982;2023-05-09T11:35:18;100976.80;;;18.16;29.98
54872;BME280;43914;57.680;11.982;2023-05-09T11:38:04;100970.23;;;18.09;29.23
54872;BME280;43914;57.680;11.982;2023-05-09T11:40:31;100968.48;;;18.07;29.52
54872;BME280;43914;57.680;11.982;2023-05-09T11:42:58;100964.08;;;18.05;28.81
54872;BME280;43914;57.680;11.982;2023-05-09T11:45:26;100965.41;;;18.08;29.15
54872;BME280;43914;57.680;11.982;2023-05-09T11:47:52;100963.37;;;18.12;29.99
54872;BME280;43914;57.680;11.982;2023-05-09T11:50:19;100958.88;;;18.16;29.99
54872;BME280;43914;57.680;11.982;2023-05-09T11:52:47;100961.06;;;18.25;29.19
54872;BME280;43914;57.680;11.982;2023-05-09T11:55:14;100954.04;;;18.27;27.82
54872;BME280;43914;57.680;11.982;2023-05-09T11:57:52;100954.69;;;18.35;27.98
54872;BME280;43914;57.680;11.982;2023-05-09T12:00:18;100952.71;;;18.41;27.27
54872;BME280;43914;57.680;11.982;2023-05-09T12:02:45;100953.26;;;18.47;27.39
54872;BME280;43914;57.680;11.982;2023-05-09T12:05:13;100951.97;;;18.61;27.46
54872;BME280;43914;57.680;11.982;2023-05-09T12:07:39;100953.09;;;18.69;26.58
54872;BME280;43914;57.680;11.982;2023-05-09T12:10:13;100951.44;;;18.74;26.26
54872;BME280;43914;57.680;11.982;2023-05-09T12:12:47;100946.89;;;18.85;26.49
54872;BME280;43914;57.680;11.982;2023-05-09T12:15:14;100943.52;;;18.94;26.37
54872;BME280;43914;57.680;11.982;2023-05-09T12:17:41;100941.67;;;19.00;25.65
54872;BME280;43914;57.680;11.982;2023-05-09T12:20:07;100938.08;;;19.05;24.16
54872;BME280;43914;57.680;11.982;2023-05-09T12:22:33;100938.63;;;19.17;24.91
54872;BME280;43914;57.680;11.982;2023-05-09T12:25:00;100935.35;;;19.33;24.55
54872;BME280;43914;57.680;11.982;2023-05-09T12:27:27;100931.23;;;19.47;24.33
54872;BME280;43914;57.680;11.982;2023-05-09T12:29:53;100924.77;;;19.56;22.90
54872;BME280;43914;57.680;11.982;2023-05-09T12:32:20;100930.45;;;19.64;22.78
54872;BME280;43914;57.680;11.982;2023-05-09T12:34:46;100925.50;;;19.78;22.85
54872;BME280;43914;57.680;11.982;2023-05-09T12:37:17;100914.41;;;19.96;23.21
54872;BME280;43914;57.680;11.982;2023-05-09T12:42:29;100907.29;;;20.33;21.78
54872;BME280;43914;57.680;11.982;2023-05-09T12:44:55;100908.38;;;20.42;21.98
54872;BME280;43914;57.680;11.982;2023-05-09T12:47:21;100902.67;;;20.57;23.10
54872;BME280;43914;57.680;11.982;2023-05-09T12:49:49;100902.39;;;20.71;22.70
54872;BME280;43914;57.680;11.982;2023-05-09T12:52:18;100899.47;;;20.78;22.64
54872;BME280;43914;57.680;11.982;2023-05-09T12:54:47;100898.08;;;20.85;22.82
54872;BME280;43914;57.680;11.982;2023-05-09T12:57:24;100893.70;;;21.04;23.28
54872;BME280;43914;57.680;11.982;2023-05-09T12:59:57;100891.65;;;21.26;23.24
54872;BME280;43914;57.680;11.982;2023-05-09T13:02:25;100895.22;;;21.52;22.41
54872;BME280;43914;57.680;11.982;2023-05-09T13:05:12;100888.54;;;21.64;21.07